SKBOSKRG

Guest
Details From SKBO - Bogota - El Dorado Intl
To SKRG - JOSE MARIA CORDOVA
Flight Number -
Tags decoded
Created
Modified
Stats Distance 142 nm / 263 km
Max Altitude 0 ft / 0 m
Waypoints 6
Social Downloads 137
Likes 0
Share VATSIM

Download

Looking for another format? Having issues loading an existing format? Contact us
Advertisement - Login to hide

Notes

Requested: SKBO BOG SOA ABL VASIL FELIX RGN SKRG

Route

SKBO SOA ABL VASIL FELIX SKRG

ID Type Via Altitude Latitude Longitude Leg Dist Tot Dist Heading (true) Name
O SKBO APT - 0 ft / 0 m 4.70159˚ -74.14695˚ - 0 nm - Bogota - El Dorado Intl
SOA VOR - 0 ft / 0 m 4.60306˚ -74.27306˚ 9 nm 9 nm 232° / 232° SOACHA VOR-DME
ABL NDB - 0 ft / 0 m 4.78389˚ -74.76750˚ 31 nm 41 nm 290° / 290° AMBALEMA NDB
VASIL FIX - 0 ft / 0 m 5.14111˚ -75.18750˚ 33 nm 74 nm 311° / 310° -
FELIX FIX - 0 ft / 0 m 5.33861˚ -75.42028˚ 18 nm 92 nm 310° / 310° -
O SKRG APT - 0 ft / 0 m 6.16453˚ -75.42312˚ 49 nm 142 nm 360° / 360° JOSE MARIA CORDOVA

Altitude Profile

Advertisement - Login to hide

SKBO

Details ICAO SKBO (BOG)
Name Bogota - El Dorado Intl
Region Colombia
Timezone America/Bogota (UTC-5.0)
Stats Elevation 8,361 ft / 2,548 m (AMSL)
Location 4.701594° -74.146946°
Runways 2
Magnetic Variation 7.268° W

METAR

SKBO 170600Z VRB02KT 9999 SCT017 SCT070 11/10 A3030

Decode

TAF

Not found

Departure Runways

ID Width Length Bearing (true) Bearing (mag) Surface Threshold Offset Overrun Length
13L 148 ft / 45 m 12,482 ft / 3,804 m 127.21° 134.48° Asphalt 0 ft / 0 m 0 ft / 0 m
13R 148 ft / 45 m 12,494 ft / 3,808 m 127.23° 134.50° Asphalt 0 ft / 0 m 200 ft / 61 m
31L 148 ft / 45 m 12,494 ft / 3,808 m 307.23° 314.50° Asphalt 0 ft / 0 m 190 ft / 58 m
31R 148 ft / 45 m 12,482 ft / 3,804 m 307.21° 314.48° Asphalt 0 ft / 0 m 0 ft / 0 m

SKRG

Details ICAO SKRG (MDE)
Name JOSE MARIA CORDOVA
Region Colombia
Timezone America/Bogota (UTC-5.0)
Stats Elevation 6,955 ft / 2,120 m (AMSL)
Location 6.164532° -75.423119°
Runways 1
Magnetic Variation 6.632° W

METAR

SKRG 170600Z VRB02KT 4000 BR BKN007 14/14 A3025

Decode

TAF

TAF SKRG 170500Z 1706/1806 VRB02KT 9999 SCT020 TEMPO 1708/1713 8000 VCFG SCT010 PROB40 TEMPO 1710/1712 0700 FG VV/// BECMG 1714/1716 12012KT TEMPO 1719/1723 8000 SCT018TCU TEMPO 1802/1805 00000KT 8000 VCFG SACT010 TX23/1719Z TN11/1711Z

Decode

Destination Runways

ID Width Length Bearing (true) Bearing (mag) Surface Threshold Offset Overrun Length
18 148 ft / 45 m 11,547 ft / 3,520 m 179.62° 186.25° Asphalt 0 ft / 0 m 98 ft / 30 m
36 148 ft / 45 m 11,547 ft / 3,520 m 359.62° 6.25° Asphalt 0 ft / 0 m 98 ft / 30 m

Approach Navaids

Runway Type Ident Frequency Range Bearing (true) Bearing (mag) Slope Elevation
36 Localiser IMDE 110.90 MHz 18 nm / 33 km 359.62° 6.25° - 6,955 ft / 2,120 m (AMSL)
36 Glidescope IMDE 110.90 MHz 10 nm / 19 km 359.62° 6.25° 3.00° 6,955 ft / 2,120 m (AMSL)

Popular Alternatives